Time;durP1;ratioP1;P1;durP2;ratioP2;P2;SDS_P1;SDS_P2;PMS_P1;PMS_P2;Temp;Humidity;BMP_temperature;BMP_pressure;BME280_temperature;BME280_humidity;BME280_pressure;Samples;Min_cycle;Max_cycle;Signal;HPM_P1;HPM_P2
2024/03/24 00:00:09;;;;;;;0.30;0.20;;;5.00;99.90;;;;;;5062396;28;20462;-73
2024/03/24 00:02:36;;;;;;;1.33;0.10;;;5.00;99.90;;;;;;5067492;28;20043;-72
2024/03/24 00:05:02;;;;;;;0.13;0.13;;;5.00;99.90;;;;;;5063104;28;20444;-71
2024/03/24 00:07:27;;;;;;;0.60;0.40;;;5.00;99.90;;;;;;5064586;28;20040;-71
2024/03/24 00:09:53;;;;;;;0.45;0.35;;;5.00;99.90;;;;;;5061823;28;20059;-72
2024/03/24 00:12:19;;;;;;;0.60;0.40;;;5.00;99.90;;;;;;5079938;28;20040;-71
2024/03/24 00:14:44;;;;;;;1.05;0.73;;;5.00;99.90;;;;;;5052259;28;20048;-72
2024/03/24 00:17:10;;;;;;;0.65;0.32;;;5.00;99.90;;;;;;5083831;28;20044;-71
2024/03/24 00:19:36;;;;;;;6.25;0.43;;;5.00;99.90;;;;;;5065138;28;20097;-71
2024/03/24 00:22:01;;;;;;;0.90;0.70;;;5.00;99.90;;;;;;5082837;28;20077;-71
2024/03/24 00:24:27;;;;;;;5.60;0.70;;;5.10;99.90;;;;;;5062420;28;20090;-70
2024/03/24 00:26:53;;;;;;;3.00;0.68;;;5.10;99.90;;;;;;5080612;28;20082;-70
2024/03/24 00:29:18;;;;;;;0.40;0.30;;;5.10;99.90;;;;;;5056868;28;20031;-69
2024/03/24 00:31:44;;;;;;;1.33;0.45;;;5.10;99.90;;;;;;5069601;28;20040;-68
2024/03/24 00:34:10;;;;;;;0.30;0.30;;;5.10;99.90;;;;;;5070308;28;20455;-68
2024/03/24 00:36:35;;;;;;;1.40;0.57;;;5.10;99.90;;;;;;5069018;28;20376;-69
2024/03/24 00:39:01;;;;;;;1.65;0.65;;;5.10;99.90;;;;;;5066902;28;20072;-70
2024/03/24 00:41:27;;;;;;;1.38;1.10;;;5.10;99.90;;;;;;5062207;28;20036;-71
2024/03/24 00:43:52;;;;;;;0.90;0.65;;;5.10;99.90;;;;;;5088515;28;20032;-71
2024/03/24 00:46:18;;;;;;;3.08;0.75;;;5.10;99.90;;;;;;5064226;28;20059;-71
2024/03/24 00:48:44;;;;;;;2.05;1.35;;;5.10;99.90;;;;;;5069867;28;20075;-70
2024/03/24 00:51:09;;;;;;;0.80;0.65;;;5.10;99.90;;;;;;5064324;28;20048;-71
2024/03/24 00:53:35;;;;;;;0.85;0.65;;;5.10;99.90;;;;;;5067871;28;20452;-73
2024/03/24 00:56:01;;;;;;;0.80;0.50;;;5.10;99.90;;;;;;5082177;28;20396;-71
2024/03/24 00:58:26;;;;;;;0.80;0.50;;;5.10;99.90;;;;;;5055819;28;20087;-70
2024/03/24 01:00:52;;;;;;;2.50;0.68;;;5.20;99.90;;;;;;5064802;28;20036;-70
2024/03/24 01:03:17;;;;;;;1.35;0.68;;;5.10;99.90;;;;;;5066531;28;20410;-71
2024/03/24 01:05:43;;;;;;;1.05;0.50;;;5.10;99.90;;;;;;5084078;28;20046;-71
2024/03/24 01:08:09;;;;;;;1.17;0.80;;;5.20;99.90;;;;;;5071816;28;20107;-69
2024/03/24 01:10:38;;;;;;;1.35;0.70;;;5.20;99.90;;;;;;5066214;28;20105;-70
2024/03/24 01:13:03;;;;;;;1.33;0.63;;;5.20;99.90;;;;;;5067680;28;20097;-70
2024/03/24 01:15:29;;;;;;;1.20;0.85;;;5.20;99.90;;;;;;5061473;28;20033;-70
2024/03/24 01:17:55;;;;;;;1.77;1.17;;;5.20;99.90;;;;;;5064409;28;20040;-69
2024/03/24 01:20:21;;;;;;;1.00;0.50;;;5.20;99.90;;;;;;5045118;28;20170;-69
2024/03/24 01:22:46;;;;;;;1.23;1.02;;;5.20;99.90;;;;;;5057124;28;20075;-70
2024/03/24 01:25:12;;;;;;;1.80;0.68;;;5.30;99.90;;;;;;5063830;28;20046;-69
2024/03/24 01:27:38;;;;;;;0.63;0.57;;;5.30;99.90;;;;;;5064987;28;20068;-69
2024/03/24 01:30:07;;;;;;;1.00;0.32;;;5.30;99.90;;;;;;5066305;28;20048;-68
2024/03/24 01:32:33;;;;;;;1.02;0.52;;;5.20;99.90;;;;;;5079162;28;20090;-68
2024/03/24 01:34:58;;;;;;;1.52;0.90;;;5.20;99.90;;;;;;5083663;28;20084;-67
2024/03/24 01:37:24;;;;;;;0.75;0.52;;;5.20;99.90;;;;;;5065824;28;20471;-68
2024/03/24 01:39:50;;;;;;;0.77;0.40;;;5.20;99.90;;;;;;5068657;28;20356;-68
2024/03/24 01:42:16;;;;;;;0.32;0.30;;;5.10;99.90;;;;;;5066007;28;20043;-68
2024/03/24 01:44:42;;;;;;;1.13;0.73;;;5.10;99.90;;;;;;5063552;28;20407;-68
2024/03/24 01:47:11;;;;;;;0.57;0.47;;;5.10;99.90;;;;;;5062652;28;20040;-68
2024/03/24 01:49:39;;;;;;;0.30;0.20;;;5.10;99.90;;;;;;5065652;28;20434;-68
2024/03/24 01:52:08;;;;;;;2.38;0.60;;;5.00;99.90;;;;;;5063069;28;20071;-69
2024/03/24 01:54:34;;;;;;;0.82;0.32;;;5.00;99.90;;;;;;5065592;28;20059;-69
2024/03/24 01:57:00;;;;;;;1.38;0.45;;;4.90;99.90;;;;;;5058990;28;20040;-68
2024/03/24 01:59:26;;;;;;;0.50;0.40;;;4.90;99.90;;;;;;5069109;28;20068;-69
2024/03/24 02:01:53;;;;;;;0.60;0.32;;;4.90;99.90;;;;;;5063640;28;20166;-69
2024/03/24 02:04:18;;;;;;;0.10;0.10;;;4.80;99.90;;;;;;5078252;28;20569;-68
2024/03/24 02:06:44;;;;;;;1.45;0.38;;;4.80;99.90;;;;;;5063511;28;20122;-69
2024/03/24 02:09:10;;;;;;;0.28;0.20;;;4.80;99.90;;;;;;5064554;28;20044;-69
2024/03/24 02:11:36;;;;;;;0.20;0.15;;;4.70;99.90;;;;;;5060310;28;20044;-68
2024/03/24 02:14:05;;;;;;;0.82;0.25;;;4.70;99.90;;;;;;5065670;28;20047;-69
2024/03/24 02:16:30;;;;;;;0.65;0.30;;;4.70;99.90;;;;;;5069302;28;20032;-69
2024/03/24 02:18:56;;;;;;;0.30;0.20;;;4.60;99.90;;;;;;5064626;28;20384;-68
2024/03/24 02:21:22;;;;;;;0.30;0.30;;;4.60;99.90;;;;;;5064666;28;20110;-69
2024/03/24 02:23:51;;;;;;;0.40;0.30;;;4.60;99.90;;;;;;5047495;28;20040;-67
2024/03/24 02:26:17;;;;;;;0.40;0.20;;;4.50;99.90;;;;;;5061377;28;20058;-69
2024/03/24 02:28:43;;;;;;;1.40;0.50;;;4.50;99.90;;;;;;5078106;28;20040;-69
2024/03/24 02:31:09;;;;;;;0.77;0.50;;;4.50;99.90;;;;;;5082942;28;20098;-69
2024/03/24 02:33:34;;;;;;;0.45;0.32;;;4.50;99.90;;;;;;5064578;28;20035;-69
2024/03/24 02:36:00;;;;;;;0.47;0.35;;;4.50;99.90;;;;;;5061995;28;20047;-69
2024/03/24 02:38:26;;;;;;;0.10;0.10;;;4.50;99.90;;;;;;5063744;28;20037;-69
2024/03/24 02:40:51;;;;;;;0.77;0.32;;;4.50;99.90;;;;;;5066402;28;20044;-69
2024/03/24 02:43:17;;;;;;;0.22;0.10;;;4.50;99.90;;;;;;5066629;28;20044;-68
2024/03/24 02:45:43;;;;;;;0.10;0.10;;;4.50;99.90;;;;;;5077882;28;20105;-68
2024/03/24 02:48:09;;;;;;;0.13;0.10;;;4.50;99.90;;;;;;5086510;28;20111;-68
2024/03/24 02:50:35;;;;;;;3.25;0.22;;;4.60;99.90;;;;;;5058627;28;20115;-68
2024/03/24 02:53:01;;;;;;;1.20;0.17;;;4.60;99.90;;;;;;5067067;28;20074;-68
2024/03/24 02:55:27;;;;;;;0.22;0.10;;;4.60;99.90;;;;;;5059966;28;20049;-68
2024/03/24 02:57:54;;;;;;;0.40;0.22;;;4.60;99.90;;;;;;5059262;28;20452;-69
2024/03/24 03:00:20;;;;;;;0.38;0.13;;;4.60;99.90;;;;;;5059758;28;20036;-68
2024/03/24 03:02:47;;;;;;;0.40;0.30;;;4.70;99.90;;;;;;5070038;28;20040;-68
2024/03/24 03:05:12;;;;;;;0.43;0.20;;;4.70;99.90;;;;;;5067654;28;20063;-68
2024/03/24 03:07:38;;;;;;;1.45;0.20;;;4.70;99.90;;;;;;5065097;28;20028;-69
2024/03/24 03:10:08;;;;;;;0.08;0.08;;;4.70;99.90;;;;;;5064140;28;20048;-69
2024/03/24 03:12:36;;;;;;;0.88;0.35;;;4.70;99.90;;;;;;5048812;28;20715;-69
2024/03/24 03:15:04;;;;;;;2.08;0.60;;;4.70;99.90;;;;;;5061254;28;20112;-68
2024/03/24 03:17:30;;;;;;;0.55;0.20;;;4.70;99.90;;;;;;5066529;28;20059;-68
2024/03/24 03:19:56;;;;;;;0.55;0.32;;;4.70;99.90;;;;;;5085497;28;20043;-67
2024/03/24 03:22:22;;;;;;;0.10;0.10;;;4.70;99.90;;;;;;5046997;28;20032;-69
2024/03/24 03:24:48;;;;;;;0.20;0.10;;;4.70;99.90;;;;;;5064791;28;20333;-68
2024/03/24 03:27:14;;;;;;;0.10;0.10;;;4.80;99.90;;;;;;5061088;28;20040;-68
2024/03/24 03:29:40;;;;;;;0.70;0.38;;;4.80;99.90;;;;;;5065537;28;20028;-68
2024/03/24 03:32:06;;;;;;;0.10;0.03;;;4.80;99.90;;;;;;5064958;28;20071;-67
2024/03/24 03:34:31;;;;;;;0.20;0.15;;;4.80;99.90;;;;;;5065954;28;20043;-68
2024/03/24 03:36:58;;;;;;;0.35;0.10;;;4.80;99.90;;;;;;5061218;28;20063;-68
2024/03/24 03:39:24;;;;;;;0.95;0.30;;;4.80;99.90;;;;;;5065572;28;20465;-68
2024/03/24 03:41:52;;;;;;;2.05;0.73;;;4.90;99.90;;;;;;5061112;28;20056;-67
2024/03/24 03:44:18;;;;;;;0.35;0.30;;;4.90;99.90;;;;;;5059326;28;20038;-69
2024/03/24 03:46:44;;;;;;;1.33;0.20;;;4.80;99.90;;;;;;5068642;28;20036;-67
2024/03/24 03:49:14;;;;;;;0.45;0.30;;;4.80;99.90;;;;;;5068984;28;20043;-68
2024/03/24 03:51:42;;;;;;;0.30;0.17;;;4.90;99.90;;;;;;5055134;28;20131;-69
2024/03/24 03:54:10;;;;;;;1.33;0.52;;;4.90;99.90;;;;;;5065932;28;20064;-69
2024/03/24 03:56:38;;;;;;;0.10;0.10;;;4.90;99.90;;;;;;5066273;28;20055;-69
2024/03/24 03:59:05;;;;;;;0.30;0.10;;;4.80;99.90;;;;;;5064214;28;20028;-68
2024/03/24 04:01:31;;;;;;;0.10;0.10;;;4.90;99.90;;;;;;5067325;28;20134;-68
2024/03/24 04:03:56;;;;;;;0.13;0.13;;;5.00;99.90;;;;;;5073513;28;20110;-68
2024/03/24 04:06:22;;;;;;;0.10;0.10;;;4.90;99.90;;;;;;5071901;28;20040;-68
2024/03/24 04:08:48;;;;;;;0.43;0.15;;;5.00;99.90;;;;;;5071414;28;20061;-68
2024/03/24 04:11:14;;;;;;;1.17;0.47;;;5.00;99.90;;;;;;5090177;28;20036;-67
2024/03/24 04:13:40;;;;;;;0.35;0.25;;;5.00;99.90;;;;;;5073240;28;20406;-68
2024/03/24 04:16:06;;;;;;;0.47;0.08;;;4.90;99.90;;;;;;5063895;28;20053;-68
2024/03/24 04:18:32;;;;;;;1.85;0.47;;;5.00;99.90;;;;;;5090082;28;20521;-68
2024/03/24 04:21:02;;;;;;;1.98;0.32;;;5.00;99.90;;;;;;5072289;28;20032;-68
2024/03/24 04:23:29;;;;;;;0.93;0.30;;;5.10;99.90;;;;;;5083319;28;20043;-68
2024/03/24 04:25:54;;;;;;;0.08;0.00;;;5.10;99.90;;;;;;5069779;28;20036;-68
2024/03/24 04:28:20;;;;;;;2.53;0.65;;;5.10;99.90;;;;;;5083340;28;20046;-67
2024/03/24 04:30:46;;;;;;;0.30;0.20;;;5.00;99.90;;;;;;5068698;28;20123;-68
2024/03/24 04:33:11;;;;;;;0.20;0.10;;;5.10;99.90;;;;;;5083834;28;20528;-67
2024/03/24 04:35:37;;;;;;;0.03;0.00;;;5.10;99.90;;;;;;5086216;28;20060;-68
2024/03/24 04:38:03;;;;;;;0.13;0.03;;;5.10;99.90;;;;;;5069072;28;20071;-69
2024/03/24 04:40:29;;;;;;;0.65;0.40;;;5.10;99.90;;;;;;5065994;28;20119;-67
2024/03/24 04:42:55;;;;;;;0.75;0.00;;;5.10;99.90;;;;;;5068502;28;20123;-68
2024/03/24 04:45:21;;;;;;;0.25;0.15;;;5.00;99.90;;;;;;5068877;28;20040;-68
2024/03/24 04:47:47;;;;;;;0.22;0.22;;;5.10;99.90;;;;;;5070400;28;20496;-67
2024/03/24 04:50:13;;;;;;;0.43;0.20;;;5.00;99.90;;;;;;5071608;28;20104;-67
2024/03/24 04:52:38;;;;;;;0.47;0.30;;;5.10;99.90;;;;;;5068290;28;20044;-67
2024/03/24 04:55:04;;;;;;;0.00;0.00;;;5.10;99.90;;;;;;5068179;28;20036;-68
2024/03/24 04:57:30;;;;;;;0.00;0.00;;;5.10;99.90;;;;;;5055738;28;20395;-68
2024/03/24 04:59:56;;;;;;;0.75;0.15;;;5.10;99.90;;;;;;5086038;28;20208;-68
2024/03/24 05:02:21;;;;;;;0.25;0.10;;;5.10;99.90;;;;;;5070637;28;20036;-68
2024/03/24 05:04:50;;;;;;;0.30;0.20;;;5.10;99.90;;;;;;5086182;28;20028;-68
2024/03/24 05:07:16;;;;;;;0.20;0.15;;;5.10;99.90;;;;;;5069080;28;20056;-68
2024/03/24 05:09:42;;;;;;;1.92;0.40;;;5.00;99.90;;;;;;5070660;28;20037;-67
2024/03/24 05:12:08;;;;;;;2.40;0.30;;;5.00;99.90;;;;;;5062900;28;20442;-68
2024/03/24 05:14:35;;;;;;;1.33;0.20;;;4.90;99.90;;;;;;5071627;28;20146;-68
2024/03/24 05:17:04;;;;;;;4.80;0.30;;;4.90;99.90;;;;;;5070631;28;20544;-68
2024/03/24 05:19:32;;;;;;;0.28;0.25;;;4.80;99.90;;;;;;5072274;28;20036;-68
2024/03/24 05:21:58;;;;;;;0.10;0.10;;;4.80;99.90;;;;;;5065088;28;20028;-68
2024/03/24 05:24:23;;;;;;;0.28;0.10;;;4.70;99.90;;;;;;5066714;28;20049;-68
2024/03/24 05:26:49;;;;;;;0.30;0.13;;;4.70;99.90;;;;;;5066391;28;20063;-67
2024/03/24 05:29:15;;;;;;;0.03;0.00;;;4.80;99.90;;;;;;5085501;28;20070;-67
2024/03/24 05:31:46;;;;;;;2.92;0.60;;;4.80;99.90;;;;;;5065824;28;20127;-67
2024/03/24 05:34:12;;;;;;;6.13;0.17;;;4.90;99.90;;;;;;5056012;28;20045;-67
2024/03/24 05:36:37;;;;;;;0.00;0.00;;;4.90;99.90;;;;;;5064017;28;20452;-66
2024/03/24 05:39:03;;;;;;;0.00;0.00;;;5.00;99.90;;;;;;5066981;28;20043;-67
2024/03/24 05:41:31;;;;;;;0.20;0.00;;;5.00;99.90;;;;;;5084102;28;20063;-67
2024/03/24 05:43:56;;;;;;;0.20;0.10;;;4.90;99.90;;;;;;5068797;28;20498;-67
2024/03/24 05:46:22;;;;;;;2.80;0.38;;;4.90;99.90;;;;;;5083059;28;20051;-67
2024/03/24 05:48:49;;;;;;;0.65;0.40;;;5.00;99.90;;;;;;5071303;28;20307;-67
2024/03/24 05:51:14;;;;;;;0.10;0.10;;;4.90;99.90;;;;;;5086172;28;20047;-67
2024/03/24 05:53:40;;;;;;;0.13;0.08;;;5.00;99.90;;;;;;5071948;28;20040;-67
2024/03/24 05:56:06;;;;;;;0.10;0.10;;;5.00;99.90;;;;;;5063067;28;20098;-67
2024/03/24 05:58:36;;;;;;;0.28;0.20;;;5.00;99.90;;;;;;5069287;28;20045;-67
2024/03/24 06:01:05;;;;;;;0.00;0.00;;;5.00;99.90;;;;;;5072081;28;20079;-67
2024/03/24 06:03:31;;;;;;;0.10;0.00;;;5.00;99.90;;;;;;5059268;28;20115;-68
2024/03/24 06:05:59;;;;;;;0.75;0.10;;;5.00;99.90;;;;;;5069731;28;21162;-66
2024/03/24 06:08:25;;;;;;;0.30;0.10;;;5.00;99.90;;;;;;5069298;28;20094;-66
2024/03/24 06:10:51;;;;;;;0.40;0.20;;;5.10;99.90;;;;;;5064294;28;20044;-67
2024/03/24 06:13:16;;;;;;;0.20;0.20;;;5.10;99.90;;;;;;5067258;28;20044;-66
2024/03/24 06:15:42;;;;;;;1.27;0.17;;;5.20;99.90;;;;;;5047786;28;20433;-67
2024/03/24 06:18:09;;;;;;;1.20;0.47;;;5.20;99.90;;;;;;5068191;28;20055;-67
2024/03/24 06:20:35;;;;;;;0.63;0.20;;;5.30;99.90;;;;;;5059612;28;20093;-67
2024/03/24 06:23:02;;;;;;;0.05;0.03;;;5.30;99.90;;;;;;5060577;28;20130;-67
2024/03/24 06:25:28;;;;;;;0.20;0.10;;;5.30;99.90;;;;;;5064232;28;20043;-68
2024/03/24 06:27:55;;;;;;;0.32;0.08;;;5.40;99.90;;;;;;5076792;28;20048;-68
2024/03/24 06:30:21;;;;;;;1.85;0.47;;;5.30;99.90;;;;;;5063510;28;20101;-67
2024/03/24 06:32:46;;;;;;;0.57;0.20;;;5.40;99.90;;;;;;5069945;28;20116;-67
2024/03/24 06:35:12;;;;;;;0.17;0.03;;;5.40;99.90;;;;;;5068755;28;20044;-67
2024/03/24 06:37:38;;;;;;;0.15;0.15;;;5.50;99.90;;;;;;5068403;28;20028;-67
2024/03/24 06:40:08;;;;;;;3.03;0.35;;;5.50;99.90;;;;;;5066654;28;20036;-68
2024/03/24 06:42:44;;;;;;;2.00;0.32;;;5.60;99.90;;;;;;5066224;28;20119;-67
2024/03/24 06:45:13;;;;;;;0.95;0.45;;;5.70;99.90;;;;;;5063195;28;20047;-67
2024/03/24 06:47:39;;;;;;;0.60;0.00;;;5.70;99.90;;;;;;5067053;28;20044;-68
2024/03/24 06:50:06;;;;;;;0.60;0.10;;;5.70;99.90;;;;;;5069651;28;20051;-66
2024/03/24 06:52:34;;;;;;;0.55;0.20;;;5.70;99.90;;;;;;5061208;28;20040;-68
2024/03/24 06:55:00;;;;;;;1.42;0.40;;;5.70;99.90;;;;;;5062840;28;20735;-65
2024/03/24 06:57:27;;;;;;;0.08;0.08;;;5.70;99.90;;;;;;5051129;28;20044;-66
2024/03/24 06:59:53;;;;;;;0.40;0.30;;;5.70;99.90;;;;;;5065532;28;20048;-65
2024/03/24 07:02:18;;;;;;;0.00;0.00;;;5.60;99.90;;;;;;5065102;28;20055;-67
2024/03/24 07:04:44;;;;;;;0.08;0.00;;;5.50;99.90;;;;;;5064061;28;20040;-66
2024/03/24 07:07:10;;;;;;;0.00;0.00;;;5.40;99.90;;;;;;5068148;28;20047;-67
2024/03/24 07:09:36;;;;;;;0.55;0.10;;;5.40;99.90;;;;;;5076996;28;20078;-67
2024/03/24 07:12:02;;;;;;;2.50;0.38;;;5.40;99.90;;;;;;5065814;28;20040;-67
2024/03/24 07:14:27;;;;;;;0.45;0.15;;;5.40;99.90;;;;;;5047412;28;20051;-65
2024/03/24 07:16:53;;;;;;;0.00;0.00;;;5.50;99.90;;;;;;5069689;28;20044;-67
2024/03/24 07:19:19;;;;;;;10.55;0.32;;;5.50;99.90;;;;;;5066366;28;20063;-68
2024/03/24 07:21:47;;;;;;;0.00;0.00;;;5.50;99.90;;;;;;5079828;28;20028;-68
2024/03/24 07:24:13;;;;;;;1.85;0.32;;;5.50;99.90;;;;;;5068091;28;20126;-65
2024/03/24 07:26:39;;;;;;;0.73;0.20;;;5.60;99.90;;;;;;5064245;28;20059;-67
2024/03/24 07:29:05;;;;;;;0.00;0.00;;;5.60;99.90;;;;;;5081147;28;20048;-66
2024/03/24 07:31:31;;;;;;;0.95;0.38;;;5.70;99.90;;;;;;5067850;28;20503;-67
2024/03/24 07:33:57;;;;;;;0.10;0.10;;;5.80;99.90;;;;;;5071530;28;20432;-66
2024/03/24 07:36:22;;;;;;;0.90;0.15;;;5.90;99.90;;;;;;5079976;28;20297;-67
2024/03/24 07:38:49;;;;;;;1.92;0.22;;;6.20;99.90;;;;;;5063941;28;20052;-67
2024/03/24 07:41:17;;;;;;;7.75;0.57;;;6.30;99.90;;;;;;5062399;28;20448;-66
2024/03/24 07:43:43;;;;;;;1.70;0.22;;;6.40;99.90;;;;;;5065839;28;20756;-67
2024/03/24 07:46:08;;;;;;;2.92;0.10;;;6.50;99.90;;;;;;5061548;28;20055;-67
2024/03/24 07:48:34;;;;;;;4.28;0.77;;;6.50;99.90;;;;;;5061099;28;20035;-66
2024/03/24 07:51:00;;;;;;;0.00;0.00;;;6.40;99.90;;;;;;5077510;28;20455;-67
2024/03/24 07:53:25;;;;;;;0.25;0.20;;;6.30;99.90;;;;;;5064744;28;20043;-67
2024/03/24 07:55:51;;;;;;;0.15;0.10;;;6.00;99.90;;;;;;5066013;28;20140;-68
2024/03/24 07:58:17;;;;;;;0.10;0.10;;;5.70;99.90;;;;;;5065932;28;20416;-67
2024/03/24 08:00:42;;;;;;;0.45;0.28;;;5.60;99.90;;;;;;5063707;28;20121;-67
2024/03/24 08:03:09;;;;;;;0.85;0.30;;;5.60;99.90;;;;;;5081281;28;20040;-67
2024/03/24 08:05:35;;;;;;;0.00;0.00;;;5.50;99.90;;;;;;5056263;28;20387;-66
2024/03/24 08:08:00;;;;;;;0.10;0.00;;;5.50;99.90;;;;;;5078939;28;20036;-67
2024/03/24 08:10:26;;;;;;;0.00;0.00;;;5.50;99.90;;;;;;5046253;28;20039;-67
2024/03/24 08:12:52;;;;;;;3.20;0.10;;;5.40;99.90;;;;;;5064631;28;20036;-67
2024/03/24 08:15:18;;;;;;;0.00;0.00;;;5.40;99.90;;;;;;5079810;28;20047;-67
2024/03/24 08:17:44;;;;;;;0.00;0.00;;;5.40;99.90;;;;;;5065840;28;20036;-67
2024/03/24 08:20:10;;;;;;;0.00;0.00;;;5.40;99.90;;;;;;5083064;28;20115;-67
2024/03/24 08:22:36;;;;;;;0.52;0.10;;;5.40;99.90;;;;;;5066387;28;20034;-67
2024/03/24 08:25:02;;;;;;;1.30;0.13;;;5.30;99.90;;;;;;5064754;28;20040;-67
2024/03/24 08:27:28;;;;;;;2.30;0.25;;;5.30;99.90;;;;;;5060200;28;20036;-66
2024/03/24 08:29:54;;;;;;;0.10;0.00;;;5.20;99.90;;;;;;5064832;28;20040;-67
2024/03/24 08:32:20;;;;;;;0.10;0.10;;;5.20;99.90;;;;;;5060046;28;20463;-67
2024/03/24 08:34:46;;;;;;;0.00;0.00;;;5.20;99.90;;;;;;5048235;28;20059;-67
2024/03/24 08:37:11;;;;;;;1.45;0.10;;;5.20;99.90;;;;;;5060007;28;20190;-67
2024/03/24 08:39:37;;;;;;;0.05;0.00;;;5.30;99.90;;;;;;5077919;28;20763;-66
2024/03/24 08:42:03;;;;;;;0.22;0.20;;;5.50;99.90;;;;;;5079693;28;20032;-67
2024/03/24 08:44:29;;;;;;;0.03;0.00;;;5.60;99.90;;;;;;5067506;28;20051;-66
2024/03/24 08:46:55;;;;;;;0.08;0.00;;;5.70;99.90;;;;;;5064434;28;20048;-66
2024/03/24 08:49:20;;;;;;;1.35;0.38;;;5.80;99.90;;;;;;5083242;28;20049;-66
2024/03/24 08:51:49;;;;;;;0.00;0.00;;;5.90;99.90;;;;;;5069495;28;20611;-68
2024/03/24 08:54:16;;;;;;;0.00;0.00;;;6.00;99.90;;;;;;5064459;28;20138;-66
2024/03/24 08:56:42;;;;;;;0.30;0.30;;;6.00;99.90;;;;;;5060014;28;20504;-67
2024/03/24 08:59:08;;;;;;;0.57;0.00;;;6.00;99.90;;;;;;5066066;28;20573;-68
2024/03/24 09:01:33;;;;;;;0.40;0.00;;;6.00;99.90;;;;;;5058589;28;20044;-68
2024/03/24 09:03:59;;;;;;;0.00;0.00;;;6.10;99.90;;;;;;5064702;28;20542;-67
2024/03/24 09:06:25;;;;;;;0.15;0.00;;;6.10;99.90;;;;;;5067585;28;20126;-67
2024/03/24 09:08:50;;;;;;;0.00;0.00;;;6.10;99.90;;;;;;5051629;28;20118;-68
2024/03/24 09:11:16;;;;;;;0.00;0.00;;;6.00;99.90;;;;;;5067632;28;20116;-67
2024/03/24 09:13:42;;;;;;;4.82;0.13;;;6.10;99.90;;;;;;5053767;28;20033;-67
2024/03/24 09:16:07;;;;;;;5.20;0.85;;;6.10;99.90;;;;;;5061901;28;20040;-68
2024/03/24 09:18:34;;;;;;;6.35;1.52;;;6.10;99.90;;;;;;5063947;28;20128;-68
2024/03/24 09:21:05;;;;;;;3.20;0.15;;;6.20;99.90;;;;;;5059927;28;20064;-67
2024/03/24 09:23:32;;;;;;;0.15;0.00;;;6.30;99.90;;;;;;5061367;28;20041;-67
2024/03/24 09:25:58;;;;;;;0.08;0.00;;;6.50;99.90;;;;;;5062035;28;20044;-67
2024/03/24 09:28:24;;;;;;;5.18;0.47;;;6.60;99.90;;;;;;5066577;28;20131;-68
2024/03/24 09:31:03;;;;;;;0.20;0.20;;;6.70;99.90;;;;;;5063813;28;20039;-67
2024/03/24 09:33:29;;;;;;;5.95;0.28;;;6.80;99.90;;;;;;5060173;28;20384;-68
2024/03/24 09:36:01;;;;;;;0.17;0.15;;;6.90;99.90;;;;;;5066222;28;20536;-68
2024/03/24 09:38:27;;;;;;;2.17;0.08;;;6.90;99.90;;;;;;5063350;28;20591;-67
2024/03/24 09:40:54;;;;;;;0.22;0.22;;;7.00;99.90;;;;;;5053747;28;20051;-67
2024/03/24 09:43:20;;;;;;;0.10;0.00;;;7.10;99.90;;;;;;5063880;28;20076;-67
2024/03/24 09:45:45;;;;;;;0.32;0.10;;;7.20;99.90;;;;;;5056141;28;20045;-68
2024/03/24 09:48:12;;;;;;;0.03;0.00;;;7.50;99.90;;;;;;5042241;28;20037;-67
2024/03/24 09:50:39;;;;;;;0.60;0.30;;;7.70;99.90;;;;;;5050614;28;20361;-68
2024/03/24 09:53:05;;;;;;;0.80;0.40;;;7.90;99.90;;;;;;5061235;28;20500;-68
2024/03/24 09:55:31;;;;;;;0.30;0.10;;;8.00;99.90;;;;;;5063687;28;20087;-67
2024/03/24 09:57:57;;;;;;;0.47;0.40;;;8.40;99.90;;;;;;5061865;28;20029;-67
2024/03/24 10:00:23;;;;;;;0.03;0.00;;;8.50;99.90;;;;;;5046871;28;20052;-67
2024/03/24 10:02:50;;;;;;;5.10;1.10;;;8.40;99.90;;;;;;5062301;28;20037;-67
2024/03/24 10:05:16;;;;;;;1.70;0.55;;;8.20;99.90;;;;;;5064041;28;20459;-67
2024/03/24 10:07:43;;;;;;;1.02;0.32;;;8.20;99.90;;;;;;5064743;28;20101;-67
2024/03/24 10:10:09;;;;;;;3.42;0.52;;;8.00;99.90;;;;;;5068147;28;20421;-66
2024/03/24 10:12:35;;;;;;;1.27;0.35;;;7.90;99.90;;;;;;5061211;28;20044;-66
2024/03/24 10:15:25;;;;;;;1.02;0.30;;;7.70;99.90;;;;;;5062882;28;20037;-66
2024/03/24 10:18:08;;;;;;;4.63;0.40;;;7.70;99.90;;;;;;5064835;28;20043;-66
2024/03/24 10:20:35;;;;;;;8.80;0.93;;;7.80;99.90;;;;;;5059147;28;20119;-67
2024/03/24 10:23:01;;;;;;;2.90;0.60;;;7.80;99.90;;;;;;5061738;28;20056;-66
2024/03/24 10:25:29;;;;;;;0.65;0.20;;;7.70;99.90;;;;;;5056460;28;20075;-67
2024/03/24 10:27:56;;;;;;;6.15;3.50;;;7.70;99.90;;;;;;5063931;28;20033;-68
2024/03/24 10:30:22;;;;;;;5.18;0.32;;;7.70;99.90;;;;;;5061577;28;20028;-68
2024/03/24 10:32:48;;;;;;;0.47;0.28;;;7.70;99.90;;;;;;5058232;28;20040;-66
2024/03/24 10:35:14;;;;;;;0.30;0.20;;;8.00;99.90;;;;;;5057018;28;20076;-66
2024/03/24 10:37:40;;;;;;;0.08;0.08;;;8.60;99.90;;;;;;5059333;28;20510;-66
2024/03/24 10:40:13;;;;;;;0.50;0.28;;;9.10;99.90;;;;;;5053126;28;20040;-67
2024/03/24 10:43:20;;;;;;;1.70;0.25;;;9.20;99.90;;;;;;5060381;28;20044;-66
2024/03/24 10:45:46;;;;;;;0.40;0.28;;;9.30;99.90;;;;;;4984702;28;20134;-67
2024/03/24 10:48:16;;;;;;;1.70;0.40;;;9.80;99.90;;;;;;4964856;28;20085;-67
2024/03/24 10:50:44;;;;;;;2.63;0.75;;;10.00;99.90;;;;;;5041502;28;20064;-67
2024/03/24 10:53:14;;;;;;;0.98;0.40;;;10.40;99.90;;;;;;5061634;28;20041;-67
2024/03/24 10:55:41;;;;;;;1.77;0.22;;;10.70;99.90;;;;;;5083281;28;20055;-66
2024/03/24 10:58:09;;;;;;;2.97;0.65;;;10.70;99.90;;;;;;5061715;28;20040;-66
2024/03/24 11:00:35;;;;;;;2.28;0.38;;;10.50;99.90;;;;;;5067604;28;20341;-67
2024/03/24 11:03:03;;;;;;;0.82;0.30;;;10.50;99.90;;;;;;5065168;28;20101;-67
2024/03/24 11:05:29;;;;;;;4.20;0.50;;;10.50;99.90;;;;;;5059130;28;20056;-67
2024/03/24 11:07:56;;;;;;;2.65;0.38;;;10.30;99.90;;;;;;5062336;28;20506;-67
2024/03/24 11:10:22;;;;;;;1.20;0.45;;;10.00;99.90;;;;;;5078407;28;20483;-67
2024/03/24 11:12:49;;;;;;;1.15;0.40;;;9.70;99.90;;;;;;5076168;28;20047;-66
2024/03/24 11:15:15;;;;;;;5.45;0.57;;;9.50;99.90;;;;;;5058476;28;20032;-67
2024/03/24 11:17:41;;;;;;;3.30;0.65;;;9.20;99.90;;;;;;5045694;28;20131;-66
2024/03/24 11:20:16;;;;;;;5.13;0.45;;;8.90;99.90;;;;;;5078026;28;20044;-67
2024/03/24 11:22:42;;;;;;;;;;;8.80;99.90;;;;;;5077389;28;20090;-66
2024/03/24 11:25:08;;;;;;;4.47;0.35;;;8.80;99.90;;;;;;5058523;28;20327;-67
2024/03/24 11:27:42;;;;;;;3.30;0.57;;;9.10;99.90;;;;;;5059460;28;20036;-67
2024/03/24 11:30:31;;;;;;;2.57;0.83;;;9.30;99.90;;;;;;5064556;28;20036;-67
2024/03/24 11:33:01;;;;;;;5.80;0.98;;;9.70;99.90;;;;;;5079076;28;20279;-67
2024/03/24 11:35:28;;;;;;;1.67;0.30;;;9.60;99.90;;;;;;5084112;28;20111;-66
2024/03/24 11:37:56;;;;;;;7.75;0.52;;;9.20;99.90;;;;;;5060182;28;20099;-67
2024/03/24 11:40:24;;;;;;;0.13;0.08;;;8.70;99.90;;;;;;5059278;28;20033;-67
2024/03/24 11:42:56;;;;;;;1.58;0.20;;;8.30;99.90;;;;;;5067451;28;21423;-66
2024/03/24 11:45:25;;;;;;;2.80;0.40;;;8.30;99.90;;;;;;5061115;28;20061;-67
2024/03/24 11:47:50;;;;;;;3.63;0.85;;;8.40;99.90;;;;;;5068295;28;20033;-66
2024/03/24 11:50:17;;;;;;;2.38;0.63;;;8.60;99.90;;;;;;5064466;28;20156;-67
2024/03/24 11:52:46;;;;;;;2.15;0.95;;;8.50;99.90;;;;;;5070707;28;20075;-67
2024/03/24 11:55:14;;;;;;;2.35;0.20;;;8.40;99.90;;;;;;5081630;28;20071;-67
2024/03/24 11:57:39;;;;;;;6.40;0.47;;;8.40;99.90;;;;;;5063042;28;20058;-67
2024/03/24 12:00:06;;;;;;;7.32;0.40;;;8.90;99.90;;;;;;5078885;28;20473;-66
2024/03/24 12:02:32;;;;;;;2.60;0.68;;;9.70;99.90;;;;;;5085122;28;20073;-67
2024/03/24 12:04:58;;;;;;;2.55;0.32;;;10.30;99.90;;;;;;5063396;28;20037;-67
2024/03/24 12:07:24;;;;;;;6.75;1.02;;;10.20;99.90;;;;;;5055547;28;20047;-68
2024/03/24 12:09:52;;;;;;;0.93;0.85;;;9.90;99.90;;;;;;5070530;28;20033;-67
2024/03/24 12:12:22;;;;;;;0.47;0.20;;;9.60;99.90;;;;;;5068225;28;20526;-67
2024/03/24 12:14:47;;;;;;;2.85;0.70;;;9.30;99.90;;;;;;5057310;28;20033;-68
2024/03/24 12:17:13;;;;;;;0.45;0.13;;;9.20;99.90;;;;;;5058202;28;20036;-69
2024/03/24 12:19:39;;;;;;;0.50;0.20;;;9.00;99.90;;;;;;5079354;28;20035;-68
2024/03/24 12:22:04;;;;;;;1.75;0.65;;;9.00;99.90;;;;;;5082765;28;20040;-68
2024/03/24 12:24:30;;;;;;;0.43;0.05;;;9.20;99.90;;;;;;5083450;28;20040;-69
2024/03/24 12:26:56;;;;;;;0.85;0.47;;;9.20;99.90;;;;;;5067097;28;20036;-68
2024/03/24 12:29:22;;;;;;;1.15;0.50;;;9.10;99.90;;;;;;5063788;28;20040;-69
2024/03/24 12:31:51;;;;;;;2.08;0.52;;;9.10;99.90;;;;;;5065125;28;20033;-68
2024/03/24 12:34:21;;;;;;;3.60;0.95;;;9.10;99.90;;;;;;5064143;28;20495;-68
2024/03/24 12:36:49;;;;;;;10.45;0.98;;;9.10;99.90;;;;;;5067774;28;20102;-68
2024/03/24 12:39:15;;;;;;;8.52;0.73;;;9.10;99.90;;;;;;5069025;28;20028;-67
2024/03/24 12:41:41;;;;;;;1.35;0.60;;;9.00;99.90;;;;;;5062594;28;20409;-67
2024/03/24 12:44:07;;;;;;;3.20;0.70;;;8.80;99.90;;;;;;5087261;28;20090;-67
2024/03/24 12:46:34;;;;;;;3.22;0.52;;;8.70;99.90;;;;;;5082843;28;20538;-68
2024/03/24 12:49:13;;;;;;;5.53;1.20;;;8.60;99.90;;;;;;5086473;28;20102;-67
2024/03/24 12:51:39;;;;;;;5.75;0.82;;;8.80;99.90;;;;;;5088785;28;20040;-68
2024/03/24 12:54:10;;;;;;;4.57;0.85;;;9.50;99.90;;;;;;5085335;28;20131;-67